Página principal
METAR-TAF:

METAR-TAF

Aeroportos :

Dallas Executive Airport

Dallas, Texas, Estados Unidos

latitude: 32-40-33N, longitude: 096-51-50W, altura: 201 m

Observação actual do tempo

O boletim foi feito há 28 minutos, às 23:53 UTC
Vento 10 kt de oes-noroeste
Temperatura 9°C
Humidade 87%
Pressão 1007 hPa
Visibilidade: 16.1 km
Encobertoa uma altura de 1300 ft

METAR: KRBD 132353Z 30010KT 10SM OVC013 09/07 A2974 RMK AO2 SLP068 60000 T00940067 10183 20094 53038 $

Hora: 18:21 (00:21 UTC)


TAF: em falta

Observações e previsões do tempo de mais de 4000 aeroportos (mensagens METAR e TAF).

As estações disponíveis são os pontos amarelos e vermelhos sobre o mapa.

Mova o rato sobre o mapa para ver o nome da estação.

Depois clique no ponto para visualizar as observações e previsões meteorológicas.

Para alterar o mapa : clique nos botões verdes com uma cruz preta para aumentar o zoom; no botão verde com uma pitada de zoom; ou nas setas verdes para mapas adjacentes.


METAR-TAF: